Time;durP1;ratioP1;P1;durP2;ratioP2;P2;SDS_P1;SDS_P2;PMS_P1;PMS_P2;Temp;Humidity;BMP_temperature;BMP_pressure;BME280_temperature;BME280_humidity;BME280_pressure;Samples;Min_cycle;Max_cycle;Signal;HPM_P1;HPM_P2
2023/07/27 00:02:19;;;;;;;9.68;7.18;;;;;;;26.97;49.15;98584.00;5089428;28;20463;-44
2023/07/27 00:04:44;;;;;;;9.95;7.43;;;;;;;27.15;48.31;98582.66;5089305;28;20024;-43
2023/07/27 00:07:10;;;;;;;9.77;7.43;;;;;;;26.84;49.25;98585.91;5089208;28;20028;-46
2023/07/27 00:09:35;;;;;;;12.75;8.10;;;;;;;27.27;47.82;98581.88;5088924;28;20016;-43
2023/07/27 00:12:00;;;;;;;9.93;7.50;;;;;;;26.90;48.16;98579.09;5089269;28;20128;-43
2023/07/27 00:14:26;;;;;;;11.30;7.53;;;;;;;26.38;49.93;98588.63;5089266;28;20043;-43
2023/07/27 00:16:51;;;;;;;13.15;7.60;;;;;;;26.79;49.09;98584.22;5089528;28;20047;-44
2023/07/27 00:19:17;;;;;;;11.43;7.50;;;;;;;27.13;48.57;98584.91;5089313;28;20104;-43
2023/07/27 00:21:42;;;;;;;8.30;6.50;;;;;;;27.45;47.70;98596.06;5089092;28;20031;-46
2023/07/27 00:24:07;;;;;;;10.48;7.07;;;;;;;27.11;47.89;98587.16;5089387;28;20020;-44
2023/07/27 00:26:33;;;;;;;9.68;6.88;;;;;;;27.42;47.47;98594.03;5089635;28;20066;-43
2023/07/27 00:28:58;;;;;;;9.50;6.65;;;;;;;27.36;47.36;98606.31;5089376;28;21665;-44
2023/07/27 00:31:24;;;;;;;11.30;6.68;;;;;;;26.87;48.15;98596.94;5089584;28;20097;-43
2023/07/27 00:33:49;;;;;;;8.23;6.72;;;;;;;27.03;47.83;98590.81;5089691;28;20110;-43
2023/07/27 00:36:15;;;;;;;8.27;6.20;;;;;;;26.71;48.45;98596.81;5089500;28;20668;-43
2023/07/27 00:38:40;;;;;;;8.73;5.47;;;;;;;27.00;47.60;98586.06;5089430;28;20024;-44
2023/07/27 00:41:06;;;;;;;7.60;5.93;;;;;;;26.98;47.80;98591.03;5089607;28;20636;-43
2023/07/27 00:43:31;;;;;;;9.85;6.15;;;;;;;26.77;48.03;98593.84;5089437;28;20044;-44
2023/07/27 00:45:57;;;;;;;8.90;6.00;;;;;;;26.32;49.41;98598.16;5089534;28;20543;-45
2023/07/27 00:48:23;;;;;;;9.35;5.90;;;;;;;26.22;49.34;98602.09;5093641;28;20439;-45
2023/07/27 00:50:50;;;;;;;8.55;5.95;;;;;;;26.60;48.60;98597.56;5093447;28;20055;-45
2023/07/27 00:53:16;;;;;;;7.90;5.75;;;;;;;26.64;48.45;98593.84;5093940;28;20073;-44
2023/07/27 00:55:43;;;;;;;6.97;5.28;;;;;;;26.92;47.83;98588.56;5093591;28;20021;-44
2023/07/27 00:58:09;;;;;;;9.77;5.82;;;;;;;26.84;47.74;98588.63;5093479;28;20150;-45
2023/07/27 01:00:35;;;;;;;8.80;5.60;;;;;;;26.51;48.86;98606.63;5092858;28;20102;-44
2023/07/27 01:03:02;;;;;;;9.38;5.20;;;;;;;26.56;49.03;98604.81;5093212;28;20028;-43
2023/07/27 01:05:29;;;;;;;8.55;5.32;;;;;;;26.43;49.30;98612.97;5093640;28;20024;-44
2023/07/27 01:07:54;;;;;;;7.50;5.45;;;;;;;26.82;48.08;98615.47;5093148;28;20031;-43
2023/07/27 01:10:28;;;;;;;7.13;5.13;;;;;;;26.99;47.58;98614.47;5093169;28;20024;-44
2023/07/27 01:13:05;;;;;;;7.80;5.25;;;;;;;27.25;47.32;98612.22;5093301;28;20028;-43
2023/07/27 01:15:32;;;;;;;9.13;5.20;;;;;;;27.05;47.38;98624.81;5093071;28;20020;-44
2023/07/27 01:18:13;;;;;;;8.55;5.60;;;;;;;26.86;47.78;98608.97;5093393;28;20028;-43
2023/07/27 01:21:04;;;;;;;7.03;5.53;;;;;;;26.90;47.84;98598.19;5093127;28;20024;-45
2023/07/27 01:23:55;;;;;;;8.13;5.38;;;;;;;26.80;47.84;98604.91;5093114;28;20031;-44
2023/07/27 01:26:23;;;;;;;7.07;5.03;;;;;;;27.05;47.07;98607.66;5093474;28;20024;-42
2023/07/27 01:29:02;;;;;;;8.60;5.13;;;;;;;27.16;46.73;98610.72;5093044;28;20032;-44
2023/07/27 01:31:31;;;;;;;;;;;;;;;26.71;47.28;98613.19;5092896;28;20091;-45
2023/07/27 01:34:02;;;;;;;6.20;4.78;;;;;;;26.47;48.19;98608.44;5092666;28;19938;-43
2023/07/27 01:36:35;;;;;;;8.30;5.10;;;;;;;26.62;47.69;98603.50;5092405;28;20093;-43
2023/07/27 01:39:06;;;;;;;7.43;5.22;;;;;;;26.74;47.32;98606.25;5092706;28;20024;-43
2023/07/27 01:41:33;;;;;;;6.28;4.72;;;;;;;27.23;46.44;98609.03;5092745;28;20388;-46
2023/07/27 01:44:01;;;;;;;6.60;4.93;;;;;;;26.53;47.43;98606.28;5092684;28;20031;-43
2023/07/27 01:46:30;;;;;;;6.82;4.80;;;;;;;26.38;48.04;98620.56;5092585;28;20024;-46
2023/07/27 01:48:59;;;;;;;9.23;6.72;;;;;;;26.28;48.36;98614.41;5092651;28;20047;-44
2023/07/27 01:51:26;;;;;;;9.27;6.75;;;;;;;26.41;47.86;98622.63;5092275;28;20028;-42
2023/07/27 01:53:53;;;;;;;7.35;4.85;;;;;;;26.54;47.24;98621.53;5092573;28;20020;-43
2023/07/27 01:56:21;;;;;;;6.53;4.93;;;;;;;26.85;47.00;98626.50;5092487;28;20024;-43
2023/07/27 01:58:48;;;;;;;9.77;5.10;;;;;;;26.48;47.38;98626.41;5092015;28;20020;-45
2023/07/27 02:01:14;;;;;;;6.82;5.13;;;;;;;26.17;48.24;98629.56;5092528;28;20035;-42
2023/07/27 02:03:40;;;;;;;7.20;4.68;;;;;;;25.97;48.57;98620.28;5092312;28;20043;-45
2023/07/27 02:06:06;;;;;;;7.35;4.47;;;;;;;26.16;48.42;98638.06;5092182;28;20015;-44
2023/07/27 02:08:31;;;;;;;5.60;4.97;;;;;;;26.25;48.25;98630.63;5092141;28;20020;-43
2023/07/27 02:11:06;;;;;;;6.88;5.00;;;;;;;26.41;47.60;98628.09;5090018;28;20036;-45
2023/07/27 02:13:51;;;;;;;6.57;4.60;;;;;;;26.43;47.46;98642.97;5092101;28;20383;-43
2023/07/27 02:16:30;;;;;;;5.95;4.60;;;;;;;25.80;49.09;98634.00;5091910;28;20031;-44
2023/07/27 02:18:59;;;;;;;6.15;4.82;;;;;;;25.80;48.88;98634.00;5092352;28;20048;-43
2023/07/27 02:21:26;;;;;;;;;;;;;;;25.87;48.86;98642.44;5092487;28;20074;-44
2023/07/27 02:23:52;;;;;;;7.07;4.80;;;;;;;26.38;47.63;98650.56;5091638;28;19907;-43
2023/07/27 02:26:18;;;;;;;6.65;4.60;;;;;;;26.38;47.53;98659.53;5091605;28;20093;-44
2023/07/27 02:28:43;;;;;;;10.70;5.18;;;;;;;26.65;47.13;98654.66;5091730;28;20135;-42
2023/07/27 02:31:09;;;;;;;6.45;4.70;;;;;;;26.55;46.87;98660.50;5091319;28;20019;-42
2023/07/27 02:33:34;;;;;;;6.57;4.85;;;;;;;26.02;48.54;98658.22;5091619;28;20028;-43
2023/07/27 02:36:00;;;;;;;5.88;4.50;;;;;;;26.06;48.27;98663.81;5091277;28;20048;-46
2023/07/27 02:38:25;;;;;;;6.13;4.60;;;;;;;25.82;49.29;98675.34;5091665;28;20099;-42
2023/07/27 02:40:50;;;;;;;7.22;4.88;;;;;;;26.41;47.78;98683.41;5091483;28;20020;-48
2023/07/27 02:43:16;;;;;;;8.68;4.57;;;;;;;26.59;47.16;98691.44;5091369;28;20062;-44
2023/07/27 02:45:41;;;;;;;6.88;5.18;;;;;;;26.55;47.20;98702.22;5091515;28;20103;-43
2023/07/27 02:48:07;;;;;;;7.57;5.07;;;;;;;26.17;48.23;98699.66;5091504;28;20149;-42
2023/07/27 02:50:32;;;;;;;6.40;5.00;;;;;;;25.87;48.97;98703.19;5090949;28;20028;-44
2023/07/27 02:52:57;;;;;;;7.32;5.18;;;;;;;26.05;48.76;98719.47;5091312;28;20036;-44
2023/07/27 02:55:23;;;;;;;6.70;4.72;;;;;;;26.01;48.67;98718.50;5091251;28;20108;-45
2023/07/27 02:57:48;;;;;;;7.05;4.80;;;;;;;25.79;49.41;98725.03;5091447;28;20107;-43
2023/07/27 03:00:14;;;;;;;5.68;4.85;;;;;;;26.33;48.31;98730.63;5091090;28;20023;-43
2023/07/27 03:02:39;;;;;;;7.47;5.15;;;;;;;26.71;47.06;98735.16;5090890;28;20400;-43
2023/07/27 03:05:05;;;;;;;7.05;4.97;;;;;;;26.53;47.32;98734.50;5090742;28;20158;-46
2023/07/27 03:07:31;;;;;;;7.72;5.53;;;;;;;26.11;48.33;98745.41;5090949;28;20027;-44
2023/07/27 03:09:56;;;;;;;5.97;5.10;;;;;;;25.54;50.11;98736.53;5090026;28;20035;-45
2023/07/27 03:12:22;;;;;;;7.05;5.38;;;;;;;25.67;50.05;98732.00;5090646;28;20434;-45
2023/07/27 03:14:47;;;;;;;6.93;5.55;;;;;;;25.63;50.15;98738.44;5090985;28;20521;-43
2023/07/27 03:17:12;;;;;;;7.15;5.78;;;;;;;25.70;50.12;98734.06;5090687;28;20031;-44
2023/07/27 03:19:38;;;;;;;7.90;5.40;;;;;;;25.65;50.06;98738.91;5090949;28;20020;-47
2023/07/27 03:22:05;;;;;;;6.45;5.13;;;;;;;25.69;49.73;98737.91;5090669;28;20020;-44
2023/07/27 03:24:30;;;;;;;7.63;5.28;;;;;;;25.82;49.36;98743.47;5090605;28;20056;-44
2023/07/27 03:26:56;;;;;;;6.68;5.20;;;;;;;25.99;48.94;98743.41;5090632;28;20084;-44
2023/07/27 03:29:21;;;;;;;7.25;5.00;;;;;;;25.81;48.49;98747.31;5090608;28;20098;-44
2023/07/27 03:31:46;;;;;;;6.90;4.90;;;;;;;25.78;47.84;98743.31;5090320;28;20024;-44
2023/07/27 03:34:12;;;;;;;6.00;4.63;;;;;;;26.04;46.99;98740.47;5090700;28;20035;-46
2023/07/27 03:36:37;;;;;;;5.30;4.60;;;;;;;25.84;46.90;98739.28;5090379;28;20040;-45
2023/07/27 03:39:03;;;;;;;5.90;4.10;;;;;;;24.87;48.25;98737.19;5090664;28;20089;-45
2023/07/27 03:41:28;;;;;;;8.73;4.40;;;;;;;24.58;48.91;98755.78;5090576;28;20097;-45
2023/07/27 03:43:54;;;;;;;5.78;4.28;;;;;;;25.05;47.83;98760.50;5090754;28;20101;-43
2023/07/27 03:46:19;;;;;;;7.22;4.18;;;;;;;25.23;47.13;98758.59;5090715;28;20024;-45
2023/07/27 03:48:48;;;;;;;6.10;3.22;;;;;;;24.57;47.63;98762.31;5090335;28;20433;-43
2023/07/27 03:51:14;;;;;;;9.00;3.22;;;;;;;24.86;46.91;98773.69;5089804;28;20566;-44
2023/07/27 03:53:39;;;;;;;4.35;3.30;;;;;;;25.06;46.16;98773.00;5090130;28;20468;-43
2023/07/27 03:56:05;;;;;;;4.97;3.20;;;;;;;25.09;46.29;98775.09;5089885;28;20076;-43
2023/07/27 03:58:31;;;;;;;5.90;3.00;;;;;;;24.57;46.54;98781.38;5090250;28;20016;-44
2023/07/27 04:00:57;;;;;;;6.47;3.15;;;;;;;24.89;45.78;98778.50;5090561;28;20119;-43
2023/07/27 04:03:22;;;;;;;4.35;3.08;;;;;;;25.38;44.95;98783.69;5090097;28;20526;-42
2023/07/27 04:05:48;;;;;;;3.95;2.92;;;;;;;24.82;45.56;98787.13;5088877;28;20016;-44
2023/07/27 04:08:13;;;;;;;3.90;2.65;;;;;;;25.16;45.04;98796.38;5085754;28;20028;-45
2023/07/27 04:10:40;;;;;;;7.45;2.65;;;;;;;25.60;43.55;98809.91;5086421;28;20020;-45
2023/07/27 04:13:05;;;;;;;4.63;2.70;;;;;;;25.49;43.80;98810.25;5087151;28;20012;-44
2023/07/27 04:15:31;;;;;;;3.17;2.50;;;;;;;25.13;44.43;98810.63;5083626;28;20023;-44
2023/07/27 04:17:56;;;;;;;2.78;2.38;;;;;;;24.82;44.61;98813.53;5088826;28;20032;-42
2023/07/27 04:20:22;;;;;;;4.10;2.95;;;;;;;25.15;44.10;98808.38;5087813;28;20028;-42
2023/07/27 04:22:47;;;;;;;4.80;2.65;;;;;;;24.96;44.48;98820.41;5088259;28;20024;-43
2023/07/27 04:25:13;;;;;;;6.28;2.88;;;;;;;24.88;44.64;98823.13;5087893;28;20040;-43
2023/07/27 04:27:38;;;;;;;6.15;2.80;;;;;;;25.02;43.91;98831.13;5087807;28;20035;-43
2023/07/27 04:30:04;;;;;;;4.05;2.72;;;;;;;24.95;44.11;98832.41;5087673;28;20376;-42
2023/07/27 04:32:30;;;;;;;4.88;2.90;;;;;;;25.12;43.93;98837.03;5088071;28;20487;-44
2023/07/27 04:34:55;;;;;;;6.53;3.00;;;;;;;25.34;43.31;98843.44;5088490;28;20044;-44
2023/07/27 04:37:21;;;;;;;4.85;2.60;;;;;;;24.66;44.52;98843.13;5089831;28;20115;-43
2023/07/27 04:39:47;;;;;;;6.43;3.00;;;;;;;24.86;44.29;98849.84;5087213;28;20107;-44
2023/07/27 04:42:12;;;;;;;3.20;2.90;;;;;;;25.50;42.97;98846.47;5088012;28;20127;-43
2023/07/27 04:44:38;;;;;;;7.50;3.20;;;;;;;25.71;42.53;98844.63;5088178;28;20024;-43
2023/07/27 04:47:03;;;;;;;4.13;3.25;;;;;;;25.83;42.39;98854.03;5087972;28;20072;-43
2023/07/27 04:49:29;;;;;;;3.30;3.00;;;;;;;26.10;41.71;98870.00;5100714;28;20038;-43
2023/07/27 04:51:54;;;;;;;5.10;3.13;;;;;;;25.51;43.23;98862.47;5093159;28;20020;-43
2023/07/27 04:54:20;;;;;;;4.55;3.40;;;;;;;25.29;43.46;98862.69;5088900;28;20053;-43
2023/07/27 04:56:45;;;;;;;4.03;3.28;;;;;;;25.42;43.33;98861.69;5088915;28;20029;-42
2023/07/27 04:59:11;;;;;;;4.53;3.50;;;;;;;25.70;42.87;98864.84;5088685;28;20391;-44
2023/07/27 05:01:36;;;;;;;5.40;3.50;;;;;;;25.89;42.17;98869.06;5089288;28;20058;-45
2023/07/27 05:04:01;;;;;;;4.32;3.45;;;;;;;26.00;41.91;98864.91;5089051;28;20024;-44
2023/07/27 05:06:27;;;;;;;9.13;4.18;;;;;;;25.47;43.16;98866.16;5088965;28;20113;-43
2023/07/27 05:08:52;;;;;;;5.15;3.60;;;;;;;25.24;43.82;98866.34;5088606;28;20035;-43
2023/07/27 05:11:18;;;;;;;7.65;3.80;;;;;;;24.85;44.38;98886.38;5087815;28;20530;-44
2023/07/27 05:13:43;;;;;;;4.25;3.40;;;;;;;25.26;44.02;98864.09;5084927;28;20581;-43
2023/07/27 05:16:09;;;;;;;4.07;3.60;;;;;;;25.31;43.63;98882.22;5089018;28;20044;-43
2023/07/27 05:18:34;;;;;;;4.07;3.42;;;;;;;25.86;42.64;98889.63;5088811;28;20020;-42
2023/07/27 05:21:00;;;;;;;5.15;3.50;;;;;;;25.44;43.07;98880.44;5086079;28;20043;-43
2023/07/27 05:23:26;;;;;;;4.20;3.47;;;;;;;25.10;43.27;98876.59;5088018;28;20028;-44
2023/07/27 05:25:52;;;;;;;5.07;3.47;;;;;;;25.32;43.10;98886.53;5087962;28;20441;-43
2023/07/27 05:28:17;;;;;;;4.85;3.58;;;;;;;25.02;43.84;98896.44;5087915;28;20039;-43
2023/07/27 05:30:43;;;;;;;3.85;3.20;;;;;;;25.10;44.00;98893.72;5087960;28;20027;-43
2023/07/27 05:33:08;;;;;;;5.78;3.70;;;;;;;24.52;43.74;98884.88;5089674;28;20036;-42
2023/07/27 05:35:34;;;;;;;3.92;3.45;;;;;;;25.18;42.99;98925.56;5091016;28;20040;-43
2023/07/27 05:37:59;;;;;;;6.63;3.78;;;;;;;24.88;43.04;98919.16;5089682;28;20024;-43
2023/07/27 05:40:25;;;;;;;4.45;3.47;;;;;;;24.24;44.18;98932.38;5090028;28;20023;-43
2023/07/27 05:42:50;;;;;;;9.13;3.92;;;;;;;24.17;44.45;98920.06;5090052;28;20027;-45
2023/07/27 05:45:16;;;;;;;5.75;4.00;;;;;;;24.81;43.51;98926.19;5090167;28;20516;-42
2023/07/27 05:47:41;;;;;;;6.90;3.90;;;;;;;25.96;41.29;98934.03;5090005;28;20032;-46
2023/07/27 05:50:07;;;;;;;6.88;3.92;;;;;;;26.59;40.31;98940.50;5090711;28;20024;-42
2023/07/27 05:52:32;;;;;;;6.15;3.67;;;;;;;26.70;39.39;98925.34;5091371;28;20332;-44
2023/07/27 05:54:58;;;;;;;7.53;3.83;;;;;;;26.13;40.31;98955.78;5091455;28;20069;-43
2023/07/27 05:57:23;;;;;;;9.15;4.20;;;;;;;25.31;41.51;98925.78;5091421;28;20031;-43
2023/07/27 05:59:49;;;;;;;5.45;3.67;;;;;;;25.21;42.03;98937.75;5091048;28;20028;-44
2023/07/27 06:02:15;;;;;;;6.55;3.53;;;;;;;25.12;42.40;98939.69;5090694;28;20032;-43
2023/07/27 06:04:41;;;;;;;6.50;3.55;;;;;;;25.18;41.98;98916.63;5090589;28;20073;-44
2023/07/27 06:07:06;;;;;;;6.85;3.33;;;;;;;25.64;41.22;98922.53;5090909;28;20110;-43
2023/07/27 06:09:32;;;;;;;5.90;3.67;;;;;;;25.56;41.12;98915.97;5090575;28;20038;-43
2023/07/27 06:11:57;;;;;;;7.10;3.53;;;;;;;25.26;41.67;98924.00;5090529;28;20016;-42
2023/07/27 06:14:23;;;;;;;4.63;3.33;;;;;;;24.67;43.07;98920.88;5091077;28;20419;-44
2023/07/27 06:16:48;;;;;;;9.10;3.53;;;;;;;24.85;43.32;98933.41;5090864;28;20698;-46
2023/07/27 06:19:14;;;;;;;5.63;3.83;;;;;;;25.45;42.23;98928.31;5090651;28;20024;-42
2023/07/27 06:21:39;;;;;;;4.15;3.15;;;;;;;25.90;41.37;98919.75;5091022;28;20023;-42
2023/07/27 06:24:05;;;;;;;3.65;2.60;;;;;;;26.52;39.96;98929.28;5090828;28;20032;-42
2023/07/27 06:26:30;;;;;;;6.78;3.10;;;;;;;26.18;40.44;98927.50;5090915;28;20137;-43
2023/07/27 06:28:57;;;;;;;6.20;3.00;;;;;;;26.28;39.89;98929.91;5090781;28;20495;-44
2023/07/27 06:31:22;;;;;;;4.10;2.90;;;;;;;25.81;40.80;98927.13;5091094;28;20024;-43
2023/07/27 06:33:48;;;;;;;5.80;3.20;;;;;;;26.11;40.22;98930.75;5090520;28;20415;-45
2023/07/27 06:36:17;;;;;;;4.90;2.90;;;;;;;25.91;39.99;98932.22;5090880;28;20121;-43
2023/07/27 06:38:43;;;;;;;4.03;2.80;;;;;;;26.30;39.43;98935.81;5090591;28;20114;-44
2023/07/27 06:41:08;;;;;;;3.20;2.53;;;;;;;26.39;39.06;98935.75;5090902;28;20115;-44
2023/07/27 06:43:34;;;;;;;8.07;2.65;;;;;;;26.44;38.84;98936.38;5090644;28;20028;-41
2023/07/27 06:45:59;;;;;;;6.28;2.78;;;;;;;26.37;39.00;98935.28;5090551;28;20055;-43
2023/07/27 06:48:25;;;;;;;3.95;2.70;;;;;;;26.64;38.50;98923.97;5090598;28;20031;-45
2023/07/27 06:50:50;;;;;;;3.05;2.40;;;;;;;26.51;38.34;98939.41;5090559;28;20510;-44
2023/07/27 06:53:16;;;;;;;8.80;2.75;;;;;;;25.96;38.82;98925.84;5090092;28;20435;-41
2023/07/27 06:55:41;;;;;;;3.95;2.55;;;;;;;26.22;38.53;98937.47;5090696;28;20028;-42
2023/07/27 06:58:07;;;;;;;6.72;3.03;;;;;;;26.63;37.92;98924.28;5090364;28;20161;-43
2023/07/27 07:00:32;;;;;;;4.65;2.40;;;;;;;27.15;36.77;98910.28;5089813;28;20486;-43
2023/07/27 07:02:58;;;;;;;8.23;2.45;;;;;;;26.03;37.59;98894.25;5090270;28;20113;-42
2023/07/27 07:05:24;;;;;;;4.78;2.60;;;;;;;25.73;38.91;98912.41;5090283;28;20411;-45
2023/07/27 07:07:49;;;;;;;3.50;2.55;;;;;;;26.05;38.41;98899.38;5090034;28;20031;-42
2023/07/27 07:10:15;;;;;;;5.00;2.60;;;;;;;26.46;37.91;98897.88;5090173;28;20024;-44
2023/07/27 07:12:40;;;;;;;5.22;2.50;;;;;;;27.21;36.54;98891.75;5090059;28;20411;-42
2023/07/27 07:15:08;;;;;;;6.20;2.58;;;;;;;27.35;35.96;98899.69;5090239;28;20024;-42
2023/07/27 07:17:33;;;;;;;4.75;2.58;;;;;;;27.61;34.93;98907.63;5090157;28;20028;-43
2023/07/27 07:19:59;;;;;;;11.35;2.47;;;;;;;26.83;35.71;98922.72;5089714;28;20098;-44
2023/07/27 07:22:24;;;;;;;6.07;2.08;;;;;;;27.44;35.49;98909.41;5090233;28;20125;-43
2023/07/27 07:24:50;;;;;;;6.93;2.42;;;;;;;27.86;34.86;98898.34;5089644;28;20028;-42
2023/07/27 07:27:15;;;;;;;5.28;2.75;;;;;;;27.82;34.12;98908.38;5089740;28;20028;-43
2023/07/27 07:29:40;;;;;;;6.60;2.00;;;;;;;27.74;34.38;98912.00;5090080;28;20028;-49
2023/07/27 07:32:06;;;;;;;3.50;2.00;;;;;;;27.84;33.95;98922.50;5089822;28;20103;-42
2023/07/27 07:34:35;;;;;;;5.20;2.05;;;;;;;28.52;32.73;98914.94;5090001;28;20036;-45
2023/07/27 07:37:00;;;;;;;6.22;2.22;;;;;;;28.19;32.85;98905.69;5089730;28;20088;-42
2023/07/27 07:39:26;;;;;;;6.38;2.20;;;;;;;28.65;32.75;98916.53;5089128;28;20114;-44
2023/07/27 07:41:52;;;;;;;5.60;2.20;;;;;;;29.14;31.32;98921.94;5088897;28;20024;-43
2023/07/27 07:44:17;;;;;;;6.18;2.10;;;;;;;28.59;31.87;98926.13;5089180;28;20028;-43
2023/07/27 07:46:43;;;;;;;7.47;2.13;;;;;;;28.66;31.54;98927.13;5089123;28;20027;-44
2023/07/27 07:49:08;;;;;;;4.15;2.00;;;;;;;28.43;31.66;98924.06;5089165;28;20501;-44
2023/07/27 07:51:34;;;;;;;6.60;1.90;;;;;;;27.92;32.11;98944.63;5089103;28;20024;-42
2023/07/27 07:54:00;;;;;;;7.15;2.00;;;;;;;27.68;32.51;98941.47;5089195;28;20027;-44
2023/07/27 07:56:25;;;;;;;4.10;1.95;;;;;;;27.25;32.98;98933.69;5088804;28;20028;-42
2023/07/27 07:58:51;;;;;;;7.00;2.00;;;;;;;27.43;33.09;98928.84;5089451;28;20028;-44
2023/07/27 08:01:16;;;;;;;9.30;2.10;;;;;;;27.20;33.27;98925.66;5089334;28;20028;-43
2023/07/27 08:03:42;;;;;;;2.38;2.00;;;;;;;27.07;33.22;98917.41;5089388;28;20032;-41
2023/07/27 08:06:10;;;;;;;7.07;1.90;;;;;;;27.18;32.87;98950.56;5089643;28;20372;-41
2023/07/27 08:08:35;;;;;;;6.50;2.10;;;;;;;27.00;33.04;98930.00;5089443;28;20054;-43
2023/07/27 08:11:02;;;;;;;3.47;2.08;;;;;;;25.93;33.82;98957.25;5089309;28;20266;-43
2023/07/27 08:13:29;;;;;;;4.88;2.20;;;;;;;26.62;33.47;98955.44;5089238;28;20114;-44
2023/07/27 08:15:54;;;;;;;4.30;1.90;;;;;;;26.69;32.99;98944.78;5089058;28;20034;-42
2023/07/27 08:18:20;;;;;;;5.10;2.10;;;;;;;25.68;33.60;98948.81;5089274;28;20035;-42
2023/07/27 08:20:57;;;;;;;10.63;2.05;;;;;;;25.55;34.33;98968.81;5089317;28;20035;-42
2023/07/27 08:23:22;;;;;;;3.95;2.17;;;;;;;26.06;33.55;98977.28;5089156;28;20034;-44
2023/07/27 08:25:48;;;;;;;6.43;2.17;;;;;;;26.02;33.44;98976.31;5088975;28;20023;-43
2023/07/27 08:28:13;;;;;;;3.13;2.30;;;;;;;25.51;34.52;98989.66;5089115;28;20112;-42
2023/07/27 08:30:41;;;;;;;4.05;2.40;;;;;;;25.90;33.72;98993.31;5089327;28;20046;-45
2023/07/27 08:33:07;;;;;;;2.80;2.40;;;;;;;24.97;34.58;98993.44;5088562;28;20089;-44
2023/07/27 08:35:33;;;;;;;5.70;2.45;;;;;;;25.48;33.67;98963.88;5088598;28;20060;-44
2023/07/27 08:37:58;;;;;;;5.00;2.40;;;;;;;25.96;33.62;98969.47;5089008;28;20029;-42
2023/07/27 08:40:24;;;;;;;7.28;2.70;;;;;;;25.10;34.64;98960.97;5089008;28;20020;-43
2023/07/27 08:42:50;;;;;;;3.28;2.33;;;;;;;25.15;35.03;98975.22;5088441;28;20059;-43
2023/07/27 08:45:20;;;;;;;2.40;2.20;;;;;;;25.28;34.44;98973.47;5088351;28;20035;-42
2023/07/27 08:47:52;;;;;;;4.70;2.60;;;;;;;25.58;34.01;98978.31;5088113;28;20040;-43
2023/07/27 08:50:19;;;;;;;4.45;2.15;;;;;;;25.68;33.96;98967.88;5089027;28;20050;-43
2023/07/27 08:52:45;;;;;;;8.57;2.20;;;;;;;25.09;34.50;98981.13;5088628;28;20153;-44
2023/07/27 08:55:11;;;;;;;4.57;2.13;;;;;;;24.50;35.79;98989.59;5088699;28;20510;-43
2023/07/27 08:57:36;;;;;;;7.30;2.13;;;;;;;24.55;35.97;98986.78;5088678;28;20058;-43
2023/07/27 09:00:03;;;;;;;3.53;2.20;;;;;;;25.22;35.12;98995.72;5088608;28;20464;-44
2023/07/27 09:02:28;;;;;;;6.03;2.35;;;;;;;25.24;35.14;98985.34;5088965;28;20031;-43
2023/07/27 09:04:54;;;;;;;6.95;3.38;;;;;;;25.30;35.25;99000.41;5088588;28;20016;-44
2023/07/27 09:07:19;;;;;;;5.28;2.40;;;;;;;25.39;35.62;99003.13;5089102;28;20061;-44
2023/07/27 09:09:51;;;;;;;2.53;2.28;;;;;;;25.65;35.26;98984.06;5092268;28;20031;-43
2023/07/27 09:12:18;;;;;;;3.70;2.25;;;;;;;25.93;34.93;98993.50;5092513;28;20035;-43
2023/07/27 09:14:43;;;;;;;8.35;2.38;;;;;;;26.06;35.08;98999.09;5092229;28;20024;-45
2023/07/27 09:17:09;;;;;;;4.88;2.30;;;;;;;25.71;35.75;98994.47;5092544;28;20410;-44
2023/07/27 09:19:40;;;;;;;3.60;2.17;;;;;;;25.56;35.55;98992.22;5092762;28;20032;-44
2023/07/27 09:22:07;;;;;;;5.85;2.28;;;;;;;25.72;35.42;98990.63;5092201;28;20107;-42
2023/07/27 09:24:33;;;;;;;4.22;2.15;;;;;;;25.70;35.30;98995.59;5091598;28;20065;-44
2023/07/27 09:27:01;;;;;;;2.40;2.20;;;;;;;25.97;34.84;98996.41;5091883;28;20085;-41
2023/07/27 09:29:27;;;;;;;3.38;2.40;;;;;;;26.25;34.18;98990.53;5091729;28;20495;-43
2023/07/27 09:31:58;;;;;;;4.40;2.13;;;;;;;26.43;32.85;98999.47;5092090;28;20085;-42
2023/07/27 09:34:29;;;;;;;3.85;2.30;;;;;;;25.81;33.53;98998.78;5091755;28;20032;-42
2023/07/27 09:36:58;;;;;;;3.65;1.90;;;;;;;26.30;32.79;99010.25;5091779;28;20036;-43
2023/07/27 09:39:28;;;;;;;2.60;2.10;;;;;;;26.70;32.52;99015.41;5091786;28;20471;-44
2023/07/27 09:41:54;;;;;;;5.50;1.85;;;;;;;26.71;31.84;99022.47;5091712;28;20024;-42
2023/07/27 09:44:21;;;;;;;3.97;1.80;;;;;;;26.60;31.48;99023.16;5091994;28;20024;-43
2023/07/27 09:46:47;;;;;;;2.13;1.70;;;;;;;27.06;30.70;99030.47;5092089;28;20043;-41
2023/07/27 09:49:14;;;;;;;2.30;1.60;;;;;;;27.23;30.62;99013.16;5092158;28;20475;-41
2023/07/27 09:51:40;;;;;;;3.97;1.83;;;;;;;27.00;30.36;99017.34;5091627;28;20028;-42
2023/07/27 09:54:06;;;;;;;3.33;1.60;;;;;;;27.80;30.13;98986.38;5091398;28;20042;-42
2023/07/27 09:56:32;;;;;;;3.58;1.70;;;;;;;28.05;29.49;99011.88;5090987;28;20024;-43
2023/07/27 09:58:59;;;;;;;2.05;1.50;;;;;;;28.50;28.78;98993.81;5091629;28;20079;-42
2023/07/27 10:01:27;;;;;;;1.92;1.40;;;;;;;28.85;28.54;98989.50;5091319;28;20039;-42
2023/07/27 10:03:58;;;;;;;3.80;1.60;;;;;;;28.40;28.04;99000.53;5091005;28;20557;-44
2023/07/27 10:06:27;;;;;;;1.98;1.48;;;;;;;28.73;28.69;98995.00;5091756;28;20602;-43
2023/07/27 10:08:54;;;;;;;1.60;1.45;;;;;;;29.65;27.90;98989.91;5091246;28;20020;-42
2023/07/27 10:11:53;;;;;;;5.28;2.00;;;;;;;29.01;27.41;98983.31;5091618;28;20020;-39
2023/07/27 10:14:19;;;;;;;2.85;1.50;;;;;;;29.27;26.92;98982.16;5062003;28;20034;-41
2023/07/27 10:16:58;;;;;;;2.28;1.52;;;;;;;29.81;26.97;98988.00;5091739;28;20074;-42
2023/07/27 10:19:44;;;;;;;1.38;1.27;;;;;;;30.24;25.62;98976.59;5091320;28;20051;-40
2023/07/27 10:22:15;;;;;;;2.60;1.50;;;;;;;29.47;26.36;98977.63;5091286;28;20157;-42
2023/07/27 10:24:56;;;;;;;1.75;1.50;;;;;;;29.41;26.59;98971.59;5091442;28;20124;-42
2023/07/27 10:27:22;;;;;;;3.35;1.50;;;;;;;29.61;26.38;98956.91;5091279;28;20686;-40
2023/07/27 10:30:11;;;;;;;3.88;1.50;;;;;;;30.15;25.92;98957.53;5091272;28;20048;-43
2023/07/27 10:32:37;;;;;;;4.30;1.70;;;;;;;30.31;25.49;98944.63;5091466;28;20099;-41
2023/07/27 10:35:08;;;;;;;3.60;1.50;;;;;;;30.45;25.50;98957.13;5090460;28;20052;-42
2023/07/27 10:37:53;;;;;;;2.00;1.60;;;;;;;30.30;25.68;98945.78;5091228;28;20023;-43
2023/07/27 10:40:25;;;;;;;2.95;1.60;;;;;;;30.94;25.16;98956.72;5090645;28;20040;-41
2023/07/27 10:42:59;;;;;;;5.53;1.70;;;;;;;30.58;24.44;98959.41;5090618;28;20031;-41
2023/07/27 10:45:26;;;;;;;2.92;1.60;;;;;;;30.60;24.74;98940.63;5090462;28;20019;-42
2023/07/27 10:47:56;;;;;;;3.45;1.50;;;;;;;30.54;24.99;98958.53;5090312;28;20499;-42
2023/07/27 10:50:21;;;;;;;4.20;1.40;;;;;;;30.48;24.50;98946.25;5090685;28;20024;-40
2023/07/27 10:52:51;;;;;;;3.35;1.58;;;;;;;30.11;24.55;98940.22;5072243;28;20581;-40
2023/07/27 10:55:17;;;;;;;3.38;1.50;;;;;;;30.47;23.97;98946.59;5090380;28;20028;-42
2023/07/27 10:57:43;;;;;;;3.88;1.50;;;;;;;30.94;24.08;98937.50;5091023;28;20445;-42
2023/07/27 11:00:09;;;;;;;3.40;1.50;;;;;;;31.02;23.47;98954.94;5090397;28;20051;-42
2023/07/27 11:02:36;;;;;;;2.20;1.60;;;;;;;31.04;23.30;98944.38;5090259;28;20099;-43
2023/07/27 11:05:07;;;;;;;3.92;1.55;;;;;;;30.77;23.68;98950.44;5090148;28;20016;-42
2023/07/27 11:07:35;;;;;;;3.15;1.30;;;;;;;30.56;23.65;98939.75;5090124;28;20437;-40
2023/07/27 11:10:08;;;;;;;3.88;1.38;;;;;;;30.53;23.66;98945.16;5090643;28;20201;-43
2023/07/27 11:12:45;;;;;;;3.65;1.40;;;;;;;30.55;23.30;98935.41;5089853;28;20459;-42
2023/07/27 11:15:17;;;;;;;2.70;1.38;;;;;;;30.58;23.45;98942.16;5089857;28;20030;-42
2023/07/27 11:17:43;;;;;;;1.30;1.20;;;;;;;30.75;23.10;98947.25;5090106;28;20034;-42
2023/07/27 11:20:10;;;;;;;1.75;1.40;;;;;;;30.58;23.82;98953.13;5090122;28;20106;-42
2023/07/27 11:22:36;;;;;;;3.90;1.52;;;;;;;31.23;23.01;98949.09;5089936;28;20406;-43
2023/07/27 11:25:04;;;;;;;2.38;1.52;;;;;;;31.16;22.99;98956.00;5090159;28;20016;-42
2023/07/27 11:27:30;;;;;;;2.80;1.40;;;;;;;30.85;23.11;98954.13;5090102;28;20024;-41
2023/07/27 11:29:59;;;;;;;2.90;1.40;;;;;;;30.57;23.40;98937.81;5089454;28;20357;-43
2023/07/27 11:32:26;;;;;;;3.95;1.55;;;;;;;31.04;23.53;98956.16;5089439;28;20099;-41
2023/07/27 11:34:55;;;;;;;3.08;1.70;;;;;;;31.32;22.81;98944.97;5089098;28;20056;-41